Time;durP1;ratioP1;P1;durP2;ratioP2;P2;SDS_P1;SDS_P2;PMS_P1;PMS_P2;Temp;Humidity;BMP_temperature;BMP_pressure;BME280_temperature;BME280_humidity;BME280_pressure;Samples;Min_cycle;Max_cycle;Signal;HPM_P1;HPM_P2
2022/06/28 00:00:33;;;;;;;46.93;29.73;;;;;;;;;;4984138;28;20061;-65
2022/06/28 00:02:59;;;;;;;36.10;26.50;;;;;;;;;;4983037;28;20054;-65
2022/06/28 00:05:25;;;;;;;52.17;32.20;;;;;;;;;;4984300;28;20034;-64
2022/06/28 00:07:51;;;;;;;43.07;30.47;;;;;;;;;;4982442;28;20405;-64
2022/06/28 00:10:17;;;;;;;45.70;30.37;;;;;;;;;;4979590;28;20043;-64
2022/06/28 00:12:43;;;;;;;51.50;32.83;;;;;;;;;;4984770;28;20150;-65
2022/06/28 00:17:55;;;;;;;51.03;28.73;;;;;;;;;;4984442;28;20038;-65
2022/06/28 00:20:22;;;;;;;66.10;35.83;;;;;;;;;;4982249;28;20046;-64
2022/06/28 00:22:48;;;;;;;50.27;30.57;;;;;;;;;;4988074;28;20055;-64
2022/06/28 00:25:14;;;;;;;48.63;31.83;;;;;;;;;;4984760;28;20050;-64
2022/06/28 00:27:41;;;;;;;42.50;27.87;;;;;;;;;;4984581;28;20039;-64
2022/06/28 00:30:07;;;;;;;59.00;34.17;;;;;;;;;;4982781;28;20049;-65
2022/06/28 00:32:33;;;;;;;43.00;28.70;;;;;;;;;;4983726;28;20432;-64
2022/06/28 00:35:00;;;;;;;92.93;40.07;;;;;;;;;;4983051;28;20034;-64
2022/06/28 00:37:26;;;;;;;52.03;29.63;;;;;;;;;;4984267;28;20050;-64
2022/06/28 00:39:52;;;;;;;45.57;29.47;;;;;;;;;;4982201;28;20047;-64
2022/06/28 00:42:18;;;;;;;43.47;29.00;;;;;;;;;;4983831;28;20043;-65
2022/06/28 00:44:44;;;;;;;48.23;29.37;;;;;;;;;;4984409;28;20058;-64
2022/06/28 00:47:11;;;;;;;56.47;32.07;;;;;;;;;;4985469;28;20061;-64
2022/06/28 00:49:41;;;;;;;45.30;28.90;;;;;;;;;;4974838;28;20097;-64
2022/06/28 00:52:08;;;;;;;57.43;33.07;;;;;;;;;;4983290;28;20038;-65
2022/06/28 00:54:34;;;;;;;47.27;29.87;;;;;;;;;;4983471;28;20054;-65
2022/06/28 00:57:00;;;;;;;61.93;33.87;;;;;;;;;;4984506;28;20046;-64
2022/06/28 00:59:26;;;;;;;47.90;30.17;;;;;;;;;;5009282;28;20081;-65
2022/06/28 01:01:52;;;;;;;50.27;32.00;;;;;;;;;;4982331;28;20039;-64
2022/06/28 01:04:18;;;;;;;39.70;28.10;;;;;;;;;;4983811;28;20038;-64
2022/06/28 01:06:45;;;;;;;54.03;32.27;;;;;;;;;;4984612;28;20160;-64
2022/06/28 01:09:11;;;;;;;50.03;31.47;;;;;;;;;;4984500;28;20045;-64
2022/06/28 01:11:37;;;;;;;45.60;28.67;;;;;;;;;;4983931;28;20042;-64
2022/06/28 01:14:06;;;;;;;40.47;27.80;;;;;;;;;;4982975;28;20046;-65
2022/06/28 01:16:32;;;;;;;42.50;27.50;;;;;;;;;;4984493;28;20062;-64
2022/06/28 01:18:58;;;;;;;55.83;33.40;;;;;;;;;;4986029;28;20042;-64
2022/06/28 01:21:26;;;;;;;52.67;32.83;;;;;;;;;;4987885;28;20108;-64
2022/06/28 01:23:52;;;;;;;46.20;32.23;;;;;;;;;;4985757;28;20055;-64
2022/06/28 01:26:22;;;;;;;46.37;31.97;;;;;;;;;;4985318;28;20053;-64
2022/06/28 01:28:49;;;;;;;52.40;31.93;;;;;;;;;;4988154;28;20046;-65
2022/06/28 01:31:17;;;;;;;61.77;34.30;;;;;;;;;;4985519;28;20050;-64
2022/06/28 01:33:43;;;;;;;64.87;34.07;;;;;;;;;;4972362;28;20085;-65
2022/06/28 01:36:10;;;;;;;55.10;33.43;;;;;;;;;;4988681;28;20405;-65
2022/06/28 01:38:38;;;;;;;49.77;32.13;;;;;;;;;;4987503;28;20050;-64
2022/06/28 01:41:04;;;;;;;59.30;33.73;;;;;;;;;;4987908;28;20658;-65
2022/06/28 01:43:32;;;;;;;58.53;34.13;;;;;;;;;;4987428;28;20081;-65
2022/06/28 01:45:58;;;;;;;49.23;33.23;;;;;;;;;;4974024;28;20039;-65
2022/06/28 01:48:25;;;;;;;44.97;29.43;;;;;;;;;;4988517;28;20046;-64
2022/06/28 01:50:52;;;;;;;38.63;27.77;;;;;;;;;;4985061;28;20489;-64
2022/06/28 01:53:19;;;;;;;57.37;35.53;;;;;;;;;;4983884;28;20104;-65
2022/06/28 01:55:45;;;;;;;51.60;31.20;;;;;;;;;;4984357;28;20081;-64
2022/06/28 01:58:12;;;;;;;56.23;33.27;;;;;;;;;;4990710;28;20069;-65
2022/06/28 02:00:38;;;;;;;48.23;31.47;;;;;;;;;;4989181;28;20134;-65
2022/06/28 02:03:04;;;;;;;57.20;32.60;;;;;;;;;;4987427;28;20053;-64
2022/06/28 02:05:31;;;;;;;89.17;41.67;;;;;;;;;;4987171;28;20093;-64
2022/06/28 02:07:57;;;;;;;70.93;35.77;;;;;;;;;;4984575;28;20042;-65
2022/06/28 02:10:23;;;;;;;65.57;35.00;;;;;;;;;;4989434;28;20093;-64
2022/06/28 02:12:49;;;;;;;54.80;31.87;;;;;;;;;;4985094;28;20081;-64
2022/06/28 02:15:16;;;;;;;37.87;24.97;;;;;;;;;;4986066;28;20088;-64
2022/06/28 02:17:42;;;;;;;37.90;25.87;;;;;;;;;;4990546;28;20093;-64
2022/06/28 02:20:09;;;;;;;36.07;25.03;;;;;;;;;;4984225;28;20073;-65
2022/06/28 02:22:35;;;;;;;41.00;27.20;;;;;;;;;;4981260;28;20517;-64
2022/06/28 02:25:01;;;;;;;70.03;32.63;;;;;;;;;;4987245;28;20046;-64
2022/06/28 02:27:27;;;;;;;56.90;31.20;;;;;;;;;;4986793;28;20053;-64
2022/06/28 02:29:53;;;;;;;56.80;30.47;;;;;;;;;;4983626;28;20121;-64
2022/06/28 02:32:19;;;;;;;48.73;30.17;;;;;;;;;;4986120;28;20468;-64
2022/06/28 02:40:27;;;;;;;58.70;32.83;;;;;;;;;;4986305;28;20050;-64
2022/06/28 02:42:54;;;;;;;51.43;29.90;;;;;;;;;;5006576;28;20057;-65
2022/06/28 02:45:21;;;;;;;52.00;30.43;;;;;;;;;;4986389;28;20035;-65
2022/06/28 02:47:47;;;;;;;57.40;33.43;;;;;;;;;;4984567;28;20051;-65
2022/06/28 02:50:13;;;;;;;57.50;34.57;;;;;;;;;;4985873;28;20081;-65
2022/06/28 02:52:40;;;;;;;61.80;35.97;;;;;;;;;;4985234;28;20050;-65
2022/06/28 02:55:06;;;;;;;65.07;36.07;;;;;;;;;;4982530;28;20042;-64
2022/06/28 02:57:32;;;;;;;56.97;34.60;;;;;;;;;;4989024;28;20042;-64
2022/06/28 02:59:59;;;;;;;56.53;32.17;;;;;;;;;;4990735;28;20149;-64
2022/06/28 03:02:25;;;;;;;63.10;33.73;;;;;;;;;;4990301;28;20053;-65
2022/06/28 03:04:51;;;;;;;67.33;37.43;;;;;;;;;;4990670;28;20058;-65
2022/06/28 03:07:17;;;;;;;56.83;35.13;;;;;;;;;;4989916;28;20042;-65
2022/06/28 03:09:43;;;;;;;70.87;35.90;;;;;;;;;;4990627;28;20420;-65
2022/06/28 03:12:09;;;;;;;53.13;33.17;;;;;;;;;;4990345;28;20530;-65
2022/06/28 03:14:35;;;;;;;61.93;34.63;;;;;;;;;;4988860;28;20129;-65
2022/06/28 03:17:01;;;;;;;61.97;36.87;;;;;;;;;;4989807;28;20504;-65
2022/06/28 03:19:27;;;;;;;70.77;37.27;;;;;;;;;;4989344;28;20089;-65
2022/06/28 03:21:53;;;;;;;57.23;34.07;;;;;;;;;;4979472;28;20043;-64
2022/06/28 03:24:19;;;;;;;57.27;33.23;;;;;;;;;;4983871;28;20066;-65
2022/06/28 03:26:45;;;;;;;65.07;36.03;;;;;;;;;;4982421;28;20066;-65
2022/06/28 03:29:11;;;;;;;59.13;34.17;;;;;;;;;;4985152;28;20050;-65
2022/06/28 03:31:37;;;;;;;48.67;31.63;;;;;;;;;;4984338;28;20057;-65
2022/06/28 03:34:03;;;;;;;53.97;32.43;;;;;;;;;;4989479;28;20058;-65
2022/06/28 03:36:29;;;;;;;60.53;33.77;;;;;;;;;;4989744;28;20042;-65
2022/06/28 03:38:55;;;;;;;56.57;30.03;;;;;;;;;;4968666;28;20098;-65
2022/06/28 03:41:24;;;;;;;73.00;36.60;;;;;;;;;;4982153;28;20042;-65
2022/06/28 03:43:51;;;;;;;49.90;29.37;;;;;;;;;;4982263;28;20169;-66
2022/06/28 03:46:17;;;;;;;45.60;26.73;;;;;;;;;;4981982;28;20046;-65
2022/06/28 03:48:43;;;;;;;41.40;26.23;;;;;;;;;;4982173;28;20042;-66
2022/06/28 03:51:10;;;;;;;51.20;30.23;;;;;;;;;;4984140;28;20038;-65
2022/06/28 03:53:36;;;;;;;55.47;30.90;;;;;;;;;;4983226;28;20042;-64
2022/06/28 03:56:02;;;;;;;46.57;28.63;;;;;;;;;;4984567;28;20049;-64
2022/06/28 03:58:28;;;;;;;47.03;28.23;;;;;;;;;;4984565;28;20124;-65
2022/06/28 04:00:54;;;;;;;44.13;26.97;;;;;;;;;;4984655;28;20042;-65
2022/06/28 04:03:20;;;;;;;37.30;24.67;;;;;;;;;;4984238;28;20046;-65
2022/06/28 04:05:46;;;;;;;45.37;27.90;;;;;;;;;;4981682;28;20057;-65
2022/06/28 04:08:12;;;;;;;42.53;26.57;;;;;;;;;;4980543;28;20049;-64
2022/06/28 04:10:38;;;;;;;44.97;26.60;;;;;;;;;;4989306;28;20448;-65
2022/06/28 04:13:05;;;;;;;41.70;28.33;;;;;;;;;;4989019;28;20048;-66
2022/06/28 04:15:31;;;;;;;49.43;27.73;;;;;;;;;;4989211;28;20054;-64
2022/06/28 04:17:57;;;;;;;35.70;21.63;;;;;;;;;;4989080;28;20116;-65
2022/06/28 04:20:23;;;;;;;33.03;21.40;;;;;;;;;;4989343;28;20101;-64
2022/06/28 04:22:50;;;;;;;40.07;23.97;;;;;;;;;;4989076;28;20619;-65
2022/06/28 04:25:16;;;;;;;44.37;25.77;;;;;;;;;;4989181;28;20424;-65
2022/06/28 04:27:42;;;;;;;33.10;20.97;;;;;;;;;;4989039;28;20038;-64
2022/06/28 04:30:09;;;;;;;42.47;25.80;;;;;;;;;;4988984;28;20420;-65
2022/06/28 04:32:35;;;;;;;36.00;21.33;;;;;;;;;;4989027;28;20057;-65
2022/06/28 04:35:01;;;;;;;37.43;22.03;;;;;;;;;;4989123;28;20069;-64
2022/06/28 04:37:27;;;;;;;42.33;23.17;;;;;;;;;;4989013;28;20054;-65
2022/06/28 04:39:53;;;;;;;46.63;29.93;;;;;;;;;;4989023;28;20057;-65
2022/06/28 04:42:19;;;;;;;38.50;21.27;;;;;;;;;;4988804;28;20038;-65
2022/06/28 04:44:45;;;;;;;40.27;24.37;;;;;;;;;;4988579;28;20049;-66
2022/06/28 04:47:11;;;;;;;47.10;24.83;;;;;;;;;;4988894;28;20085;-65
2022/06/28 04:49:38;;;;;;;36.07;20.40;;;;;;;;;;4988884;28;20137;-66
2022/06/28 04:52:04;;;;;;;31.30;19.03;;;;;;;;;;4990011;28;20052;-65
2022/06/28 04:54:30;;;;;;;33.77;20.40;;;;;;;;;;4992647;28;20085;-65
2022/06/28 04:56:56;;;;;;;46.30;23.57;;;;;;;;;;4992415;28;20633;-65
2022/06/28 04:59:22;;;;;;;37.53;19.77;;;;;;;;;;4992297;28;20096;-65
2022/06/28 05:01:48;;;;;;;37.20;21.07;;;;;;;;;;4992408;28;20057;-65
2022/06/28 05:04:14;;;;;;;32.80;20.20;;;;;;;;;;4992401;28;20053;-65
2022/06/28 05:06:40;;;;;;;25.80;17.70;;;;;;;;;;4990928;28;20524;-65
2022/06/28 05:09:06;;;;;;;31.70;18.37;;;;;;;;;;4992534;28;20590;-65
2022/06/28 05:11:32;;;;;;;29.93;19.20;;;;;;;;;;4991343;28;20081;-65
2022/06/28 05:13:59;;;;;;;31.00;16.93;;;;;;;;;;4991822;28;20500;-64
2022/06/28 05:16:26;;;;;;;32.47;16.67;;;;;;;;;;4991705;28;20094;-65
2022/06/28 05:18:52;;;;;;;29.63;16.50;;;;;;;;;;4991826;28;20073;-65
2022/06/28 05:21:18;;;;;;;30.13;17.20;;;;;;;;;;4991636;28;20428;-65
2022/06/28 05:23:44;;;;;;;26.63;14.97;;;;;;;;;;4991843;28;20699;-65
2022/06/28 05:26:10;;;;;;;29.07;16.53;;;;;;;;;;4991552;28;20054;-65
2022/06/28 05:28:36;;;;;;;28.63;14.37;;;;;;;;;;4991890;28;20038;-66
2022/06/28 05:31:02;;;;;;;28.03;16.20;;;;;;;;;;4990621;28;20053;-65
2022/06/28 05:33:28;;;;;;;26.13;15.50;;;;;;;;;;4991881;28;20050;-66
2022/06/28 05:35:54;;;;;;;26.03;12.33;;;;;;;;;;4991405;28;20108;-65
2022/06/28 05:38:20;;;;;;;23.47;15.47;;;;;;;;;;4991771;28;20527;-65
2022/06/28 05:40:46;;;;;;;24.60;13.30;;;;;;;;;;4991202;28;20038;-65
2022/06/28 05:43:12;;;;;;;23.57;13.77;;;;;;;;;;4990556;28;20042;-65
2022/06/28 05:45:38;;;;;;;27.27;12.87;;;;;;;;;;4991471;28;20050;-64
2022/06/28 05:48:05;;;;;;;22.37;12.03;;;;;;;;;;4991564;28;20077;-65
2022/06/28 05:50:31;;;;;;;23.07;13.73;;;;;;;;;;4991532;28;20346;-65
2022/06/28 05:52:57;;;;;;;22.63;13.60;;;;;;;;;;4991937;28;20535;-64
2022/06/28 05:55:23;;;;;;;23.03;13.57;;;;;;;;;;4991479;28;20042;-65
2022/06/28 05:57:49;;;;;;;24.40;11.90;;;;;;;;;;4991318;28;20042;-65
2022/06/28 06:00:15;;;;;;;20.23;11.53;;;;;;;;;;4989820;28;20046;-65
2022/06/28 06:02:42;;;;;;;19.60;11.70;;;;;;;;;;4990836;28;20122;-65
2022/06/28 06:05:08;;;;;;;18.97;9.83;;;;;;;;;;4990480;28;20590;-65
2022/06/28 06:07:34;;;;;;;29.83;11.60;;;;;;;;;;4991294;28;20496;-64
2022/06/28 06:10:00;;;;;;;16.80;9.37;;;;;;;;;;4991060;28;20157;-65
2022/06/28 06:12:26;;;;;;;17.60;8.53;;;;;;;;;;4991170;28;20390;-65
2022/06/28 06:14:52;;;;;;;17.17;10.27;;;;;;;;;;4991014;28;20059;-65
2022/06/28 06:17:18;;;;;;;18.27;9.97;;;;;;;;;;4990717;28;20610;-65
2022/06/28 06:19:45;;;;;;;21.30;11.10;;;;;;;;;;4990843;28;20501;-65
2022/06/28 06:22:11;;;;;;;20.90;11.90;;;;;;;;;;4990991;28;20488;-65
2022/06/28 06:24:37;;;;;;;16.73;9.43;;;;;;;;;;4990334;28;20090;-65
2022/06/28 06:27:03;;;;;;;18.30;9.10;;;;;;;;;;4990243;28;20112;-65
2022/06/28 06:29:29;;;;;;;16.97;10.67;;;;;;;;;;4990684;28;20531;-65
2022/06/28 06:31:57;;;;;;;25.93;11.67;;;;;;;;;;4990602;28;20046;-65
2022/06/28 06:34:23;;;;;;;26.63;11.53;;;;;;;;;;4990388;28;20097;-65
2022/06/28 06:36:50;;;;;;;21.37;10.27;;;;;;;;;;4990599;28;20082;-65
2022/06/28 06:39:16;;;;;;;16.13;9.83;;;;;;;;;;4989990;28;20046;-65
2022/06/28 06:41:43;;;;;;;14.83;9.00;;;;;;;;;;4990730;28;20042;-65
2022/06/28 06:44:09;;;;;;;20.43;10.23;;;;;;;;;;4990433;28;20062;-64
2022/06/28 06:46:36;;;;;;;23.80;8.40;;;;;;;;;;4990091;28;20113;-65
2022/06/28 06:49:02;;;;;;;17.47;8.90;;;;;;;;;;4990353;28;20058;-66
2022/06/28 06:51:30;;;;;;;19.63;8.57;;;;;;;;;;4989833;28;20823;-65
2022/06/28 06:53:57;;;;;;;16.40;9.23;;;;;;;;;;4990069;28;20058;-65
2022/06/28 06:56:23;;;;;;;12.77;8.60;;;;;;;;;;4989883;28;20054;-65
2022/06/28 06:58:49;;;;;;;19.70;10.10;;;;;;;;;;4990397;28;20056;-65
2022/06/28 07:01:15;;;;;;;16.67;9.30;;;;;;;;;;4989976;28;20077;-65
2022/06/28 07:03:44;;;;;;;20.27;7.80;;;;;;;;;;4990056;28;20054;-65
2022/06/28 07:06:13;;;;;;;16.87;7.50;;;;;;;;;;4990221;28;20062;-64
2022/06/28 07:08:40;;;;;;;19.70;9.37;;;;;;;;;;4989991;28;20050;-65
2022/06/28 07:11:06;;;;;;;20.43;7.80;;;;;;;;;;4989762;28;20054;-65
2022/06/28 07:13:32;;;;;;;19.87;8.67;;;;;;;;;;4989605;28;20042;-65
2022/06/28 07:16:04;;;;;;;19.40;8.37;;;;;;;;;;4988088;28;20054;-65
2022/06/28 07:18:30;;;;;;;17.83;6.97;;;;;;;;;;4989883;28;20141;-65
2022/06/28 07:20:56;;;;;;;17.50;8.67;;;;;;;;;;4989698;28;20101;-65
2022/06/28 07:23:24;;;;;;;13.83;6.87;;;;;;;;;;4989769;28;20653;-65
2022/06/28 07:25:50;;;;;;;19.77;8.20;;;;;;;;;;4989797;28;20204;-65
2022/06/28 07:28:16;;;;;;;18.80;6.80;;;;;;;;;;4989214;28;20081;-65
2022/06/28 07:30:43;;;;;;;13.97;6.97;;;;;;;;;;4981762;28;20046;-64
2022/06/28 07:33:09;;;;;;;22.17;8.40;;;;;;;;;;4989375;28;20047;-65
2022/06/28 07:35:35;;;;;;;14.57;5.83;;;;;;;;;;4989536;28;20388;-64
2022/06/28 07:38:01;;;;;;;14.37;5.70;;;;;;;;;;4989581;28;20046;-64
2022/06/28 07:40:27;;;;;;;14.80;5.57;;;;;;;;;;4989497;28;20058;-65
2022/06/28 07:42:53;;;;;;;19.23;6.10;;;;;;;;;;4989212;28;20126;-64
2022/06/28 07:45:20;;;;;;;10.07;4.13;;;;;;;;;;4989522;28;20039;-64
2022/06/28 07:47:47;;;;;;;17.70;5.27;;;;;;;;;;4989238;28;20060;-64
2022/06/28 07:53:02;;;;;;;18.20;6.00;;;;;;;;;;4983666;28;20057;-64
2022/06/28 07:55:28;;;;;;;15.03;4.97;;;;;;;;;;4988875;28;20054;-65
2022/06/28 07:57:54;;;;;;;11.60;4.13;;;;;;;;;;4988903;28;20485;-64
2022/06/28 08:00:21;;;;;;;11.03;4.27;;;;;;;;;;4988874;28;20047;-65
2022/06/28 08:02:47;;;;;;;17.10;4.60;;;;;;;;;;4987893;28;20068;-64
2022/06/28 08:05:14;;;;;;;9.23;3.60;;;;;;;;;;4989308;28;20584;-65
2022/06/28 08:07:40;;;;;;;9.73;3.13;;;;;;;;;;4989310;28;20046;-64
2022/06/28 08:10:07;;;;;;;12.37;3.50;;;;;;;;;;4988874;28;20137;-64
2022/06/28 08:12:33;;;;;;;8.83;3.40;;;;;;;;;;4988789;28;20050;-64
2022/06/28 08:14:59;;;;;;;9.33;3.23;;;;;;;;;;4989028;28;20108;-63
2022/06/28 08:17:25;;;;;;;10.70;3.57;;;;;;;;;;4988847;28;20486;-63
2022/06/28 08:19:51;;;;;;;11.43;2.30;;;;;;;;;;4988627;28;20078;-63
2022/06/28 08:22:17;;;;;;;9.77;2.80;;;;;;;;;;4988930;28;20097;-64
2022/06/28 08:24:43;;;;;;;9.90;2.10;;;;;;;;;;4988869;28;20129;-64
2022/06/28 08:27:09;;;;;;;9.63;2.30;;;;;;;;;;5021946;28;20113;-64
2022/06/28 08:29:35;;;;;;;9.63;2.80;;;;;;;;;;4992661;28;20046;-65
2022/06/28 08:32:02;;;;;;;7.20;2.20;;;;;;;;;;4992359;28;20043;-65
2022/06/28 08:34:28;;;;;;;7.97;1.93;;;;;;;;;;4991720;28;20421;-64
2022/06/28 08:36:54;;;;;;;9.80;2.20;;;;;;;;;;4992827;28;20054;-64
2022/06/28 08:39:20;;;;;;;7.73;2.80;;;;;;;;;;4992687;28;20042;-64
2022/06/28 08:41:47;;;;;;;8.60;2.47;;;;;;;;;;4992397;28;20060;-64
2022/06/28 08:44:14;;;;;;;7.50;2.30;;;;;;;;;;4992907;28;20053;-64
2022/06/28 08:46:41;;;;;;;11.67;3.10;;;;;;;;;;4992818;28;20555;-64
2022/06/28 08:49:13;;;;;;;9.50;2.30;;;;;;;;;;4993017;28;20174;-64
2022/06/28 08:51:39;;;;;;;8.97;2.23;;;;;;;;;;4992871;28;20047;-64
2022/06/28 08:54:05;;;;;;;10.87;2.83;;;;;;;;;;4992510;28;20477;-64
2022/06/28 08:56:31;;;;;;;9.13;2.53;;;;;;;;;;4991464;28;20583;-64
2022/06/28 08:58:58;;;;;;;6.73;1.70;;;;;;;;;;4992789;28;20050;-64
2022/06/28 09:01:24;;;;;;;6.60;2.13;;;;;;;;;;4992303;28;20042;-64
2022/06/28 09:03:51;;;;;;;6.60;1.87;;;;;;;;;;4992665;28;20151;-64
2022/06/28 09:06:17;;;;;;;7.00;1.90;;;;;;;;;;4992548;28;20043;-64
2022/06/28 09:08:43;;;;;;;5.60;1.70;;;;;;;;;;4992657;28;20446;-64
2022/06/28 09:11:10;;;;;;;8.30;2.07;;;;;;;;;;4992595;28;20042;-64
2022/06/28 09:13:36;;;;;;;9.83;2.43;;;;;;;;;;4992535;28;20086;-64
2022/06/28 09:16:04;;;;;;;5.50;1.93;;;;;;;;;;4991863;28;20042;-64
2022/06/28 09:18:36;;;;;;;8.23;1.93;;;;;;;;;;4992575;28;20579;-64
2022/06/28 09:21:04;;;;;;;6.70;1.43;;;;;;;;;;4992277;28;20058;-64
2022/06/28 09:23:32;;;;;;;8.13;1.90;;;;;;;;;;4995220;28;20287;-63
2022/06/28 09:26:05;;;;;;;5.53;1.57;;;;;;;;;;4992308;28;20563;-65
2022/06/28 09:28:32;;;;;;;6.30;1.55;;;;;;;;;;4991861;28;20129;-64
2022/06/28 09:31:18;;;;;;;6.87;2.00;;;;;;;;;;4992578;28;20129;-64
2022/06/28 09:33:45;;;;;;;7.50;1.80;;;;;;;;;;4992146;28;20559;-64
2022/06/28 09:36:12;;;;;;;9.53;2.63;;;;;;;;;;4992006;28;20046;-65
2022/06/28 09:38:38;;;;;;;8.13;2.00;;;;;;;;;;4992162;28;20053;-65
2022/06/28 09:41:04;;;;;;;7.00;2.40;;;;;;;;;;4991546;28;20881;-64
2022/06/28 09:43:32;;;;;;;6.37;1.60;;;;;;;;;;4991627;28;20046;-64
2022/06/28 09:45:58;;;;;;;7.73;1.97;;;;;;;;;;4993262;28;20543;-64
2022/06/28 09:48:24;;;;;;;6.93;1.73;;;;;;;;;;4999971;28;20540;-64
2022/06/28 09:50:57;;;;;;;9.60;1.50;;;;;;;;;;4993847;28;20065;-64
2022/06/28 09:53:25;;;;;;;8.03;1.50;;;;;;;;;;4998457;28;20096;-65
2022/06/28 09:55:52;;;;;;;5.25;1.60;;;;;;;;;;5000613;28;20107;-64
2022/06/28 09:58:20;;;;;;;6.07;1.75;;;;;;;;;;4999509;28;20149;-65
2022/06/28 10:00:46;;;;;;;6.07;1.70;;;;;;;;;;5000801;28;20046;-64
2022/06/28 10:03:12;;;;;;;4.97;1.30;;;;;;;;;;5000311;28;20046;-64
2022/06/28 10:05:38;;;;;;;5.03;1.48;;;;;;;;;;4999251;28;20054;-65
2022/06/28 10:08:04;;;;;;;8.68;2.25;;;;;;;;;;5000833;28;20129;-64
2022/06/28 10:10:31;;;;;;;7.45;1.63;;;;;;;;;;5000362;28;20065;-64
2022/06/28 10:15:46;;;;;;;4.85;1.83;;;;;;;;;;5000861;28;20049;-65
2022/06/28 10:18:17;;;;;;;9.85;3.20;;;;;;;;;;5000261;28;20042;-64
2022/06/28 10:20:43;;;;;;;11.50;1.92;;;;;;;;;;4999219;28;20448;-64
2022/06/28 10:23:25;;;;;;;5.80;1.73;;;;;;;;;;5000343;28;20124;-65
2022/06/28 10:26:11;;;;;;;9.10;1.95;;;;;;;;;;4992987;28;20176;-64
2022/06/28 10:28:37;;;;;;;9.02;1.95;;;;;;;;;;4999500;28;20069;-65
2022/06/28 10:31:22;;;;;;;6.60;1.48;;;;;;;;;;4998560;28;20056;-65
2022/06/28 10:33:59;;;;;;;5.32;1.70;;;;;;;;;;4999180;28;20049;-65
2022/06/28 10:36:26;;;;;;;6.03;1.50;;;;;;;;;;4999374;28;20993;-64
2022/06/28 10:39:01;;;;;;;7.88;1.55;;;;;;;;;;4999398;28;20042;-64
2022/06/28 10:41:38;;;;;;;4.88;1.35;;;;;;;;;;4985761;28;20464;-64
2022/06/28 10:44:12;;;;;;;4.85;1.10;;;;;;;;;;4984798;28;20116;-64
2022/06/28 10:46:38;;;;;;;5.60;1.30;;;;;;;;;;4990330;28;20409;-64
2022/06/28 10:49:08;;;;;;;6.40;2.00;;;;;;;;;;4981942;28;20505;-64
2022/06/28 10:51:36;;;;;;;4.40;1.58;;;;;;;;;;4989225;28;20157;-65
2022/06/28 10:54:07;;;;;;;5.07;1.20;;;;;;;;;;4990747;28;20109;-64
2022/06/28 10:56:37;;;;;;;4.13;1.15;;;;;;;;;;4990722;28;20394;-64
2022/06/28 10:59:04;;;;;;;3.25;1.40;;;;;;;;;;4990514;28;20053;-64
2022/06/28 11:01:40;;;;;;;6.85;1.83;;;;;;;;;;4989317;28;20572;-64
2022/06/28 11:04:24;;;;;;;3.70;1.70;;;;;;;;;;4983774;28;20492;-65
2022/06/28 11:07:01;;;;;;;4.88;1.25;;;;;;;;;;4994938;28;20046;-64
2022/06/28 11:09:47;;;;;;;4.22;0.90;;;;;;;;;;4995475;28;20050;-65
2022/06/28 11:12:13;;;;;;;6.57;1.60;;;;;;;;;;4996098;28;20050;-64
2022/06/28 11:14:55;;;;;;;5.97;1.60;;;;;;;;;;4998407;28;20046;-65
2022/06/28 11:17:35;;;;;;;4.53;1.30;;;;;;;;;;5000713;28;20133;-65
2022/06/28 11:20:08;;;;;;;6.75;1.45;;;;;;;;;;4999927;28;20074;-64
2022/06/28 11:22:39;;;;;;;6.80;1.70;;;;;;;;;;4991846;28;20088;-64
2022/06/28 11:25:07;;;;;;;4.15;1.63;;;;;;;;;;4987604;28;20485;-64
2022/06/28 11:27:33;;;;;;;3.60;1.05;;;;;;;;;;4993601;28;20108;-64
2022/06/28 11:30:05;;;;;;;4.15;1.10;;;;;;;;;;4999428;28;20408;-64
2022/06/28 11:32:32;;;;;;;3.38;1.10;;;;;;;;;;4996561;28;20045;-65
2022/06/28 11:35:12;;;;;;;11.75;1.67;;;;;;;;;;4999064;28;20041;-64
2022/06/28 11:37:53;;;;;;;4.72;1.35;;;;;;;;;;4983846;28;20048;-64
2022/06/28 11:40:21;;;;;;;7.32;1.70;;;;;;;;;;4988984;28;20042;-64
2022/06/28 11:42:47;;;;;;;5.82;1.80;;;;;;;;;;4993291;28;20193;-65
2022/06/28 11:45:15;;;;;;;4.30;1.40;;;;;;;;;;4993830;28;20125;-64
2022/06/28 11:47:44;;;;;;;5.15;1.20;;;;;;;;;;4989514;28;20581;-65
2022/06/28 11:50:19;;;;;;;7.20;1.40;;;;;;;;;;4998126;28;20877;-62
2022/06/28 11:52:48;;;;;;;5.97;1.40;;;;;;;;;;4990095;28;20042;-62
2022/06/28 11:55:15;;;;;;;4.97;1.20;;;;;;;;;;4983748;28;20085;-63
2022/06/28 11:57:41;;;;;;;3.15;1.10;;;;;;;;;;4988146;28;20061;-62
2022/06/28 12:00:07;;;;;;;3.38;1.27;;;;;;;;;;4999006;28;20042;-63
2022/06/28 12:02:41;;;;;;;4.07;1.55;;;;;;;;;;4995095;28;20041;-63
2022/06/28 12:05:07;;;;;;;6.32;1.60;;;;;;;;;;4995650;28;20042;-64
2022/06/28 12:07:37;;;;;;;6.15;1.30;;;;;;;;;;4999572;28;20046;-63
2022/06/28 12:10:03;;;;;;;4.57;1.80;;;;;;;;;;4994871;28;20528;-63
2022/06/28 12:12:29;;;;;;;5.65;1.33;;;;;;;;;;4998066;28;20049;-64
2022/06/28 12:14:56;;;;;;;3.55;1.40;;;;;;;;;;4997573;28;20038;-63
2022/06/28 12:17:22;;;;;;;7.30;1.55;;;;;;;;;;4995610;28;20050;-64
2022/06/28 12:19:48;;;;;;;5.25;1.63;;;;;;;;;;4990775;28;20504;-63
2022/06/28 12:22:18;;;;;;;4.47;1.50;;;;;;;;;;4989698;28;20055;-64
2022/06/28 12:24:51;;;;;;;5.95;1.48;;;;;;;;;;4994570;28;20196;-63
2022/06/28 12:27:28;;;;;;;6.55;1.92;;;;;;;;;;4990324;28;20077;-63
2022/06/28 12:29:57;;;;;;;4.57;1.20;;;;;;;;;;4993620;28;20512;-63
2022/06/28 12:32:23;;;;;;;7.43;1.98;;;;;;;;;;4988978;28;20108;-63
2022/06/28 12:34:56;;;;;;;5.47;1.83;;;;;;;;;;4988847;28;20054;-63
2022/06/28 12:37:23;;;;;;;4.85;1.33;;;;;;;;;;4988685;28;20058;-63
2022/06/28 12:39:49;;;;;;;6.95;1.80;;;;;;;;;;4988950;28;20054;-64
2022/06/28 12:42:15;;;;;;;5.22;1.60;;;;;;;;;;4988409;28;20049;-63
2022/06/28 12:44:41;;;;;;;5.80;1.55;;;;;;;;;;4988808;28;20512;-63
2022/06/28 12:47:07;;;;;;;6.63;1.73;;;;;;;;;;4988516;28;20046;-63
2022/06/28 12:49:33;;;;;;;6.13;1.52;;;;;;;;;;4988014;28;20138;-62
2022/06/28 12:51:59;;;;;;;5.50;1.23;;;;;;;;;;4988784;28;20125;-63
2022/06/28 12:54:25;;;;;;;4.55;1.50;;;;;;;;;;4988386;28;20050;-63
2022/06/28 12:56:51;;;;;;;4.35;1.10;;;;;;;;;;4988384;28;20105;-63
2022/06/28 12:59:17;;;;;;;4.68;1.30;;;;;;;;;;4988443;28;20137;-63
2022/06/28 13:01:43;;;;;;;4.13;1.02;;;;;;;;;;4988848;28;20097;-63
2022/06/28 13:04:11;;;;;;;5.13;1.40;;;;;;;;;;4988624;28;20078;-63
2022/06/28 13:06:38;;;;;;;3.50;0.98;;;;;;;;;;4988493;28;20121;-63
2022/06/28 13:09:04;;;;;;;5.70;1.75;;;;;;;;;;4988664;28;20042;-63
2022/06/28 13:11:30;;;;;;;4.20;1.35;;;;;;;;;;4988413;28;20046;-63
2022/06/28 13:13:56;;;;;;;5.72;1.33;;;;;;;;;;4990908;28;20058;-63
2022/06/28 13:16:22;;;;;;;5.43;1.30;;;;;;;;;;4991906;28;20061;-63
2022/06/28 13:18:48;;;;;;;4.13;1.10;;;;;;;;;;4991935;28;20064;-63
2022/06/28 13:21:14;;;;;;;4.50;0.98;;;;;;;;;;4991590;28;20112;-64
2022/06/28 13:23:40;;;;;;;3.55;1.30;;;;;;;;;;4991900;28;20108;-63
2022/06/28 13:26:06;;;;;;;6.32;1.60;;;;;;;;;;4974760;28;20061;-64
2022/06/28 13:28:32;;;;;;;3.03;0.95;;;;;;;;;;4974421;28;20496;-63
2022/06/28 13:30:58;;;;;;;7.32;1.50;;;;;;;;;;4991856;28;20046;-64
2022/06/28 13:33:24;;;;;;;7.03;1.23;;;;;;;;;;4991529;28;20054;-63
2022/06/28 13:35:50;;;;;;;6.20;1.10;;;;;;;;;;4991864;28;20042;-63
2022/06/28 13:38:17;;;;;;;4.93;1.23;;;;;;;;;;4991319;28;20054;-63
2022/06/28 13:40:46;;;;;;;3.83;1.10;;;;;;;;;;4991703;28;20105;-63
2022/06/28 13:45:57;;;;;;;5.50;1.23;;;;;;;;;;4991626;28;20050;-63
2022/06/28 13:48:24;;;;;;;4.07;1.42;;;;;;;;;;4991274;28;20050;-63
2022/06/28 13:50:50;;;;;;;5.18;1.50;;;;;;;;;;4991641;28;20042;-63
2022/06/28 13:53:16;;;;;;;4.78;1.33;;;;;;;;;;4991035;28;20046;-63
2022/06/28 13:55:43;;;;;;;2.70;0.82;;;;;;;;;;4991402;28;20065;-63
2022/06/28 13:58:10;;;;;;;4.28;1.00;;;;;;;;;;4991489;28;20173;-63
2022/06/28 14:00:36;;;;;;;4.65;1.20;;;;;;;;;;4991174;28;20042;-63
2022/06/28 14:03:02;;;;;;;4.68;1.63;;;;;;;;;;4991661;28;20050;-63
2022/06/28 14:05:28;;;;;;;4.07;1.15;;;;;;;;;;4990863;28;20054;-62
2022/06/28 14:07:54;;;;;;;4.72;1.50;;;;;;;;;;4991504;28;20050;-62
2022/06/28 14:10:20;;;;;;;5.60;1.17;;;;;;;;;;4991242;28;20045;-63
2022/06/28 14:12:46;;;;;;;6.78;1.33;;;;;;;;;;4990856;28;20453;-63
2022/06/28 14:15:12;;;;;;;5.45;1.40;;;;;;;;;;4991106;28;20057;-62
2022/06/28 14:17:38;;;;;;;3.95;1.00;;;;;;;;;;4991136;28;20046;-63
2022/06/28 14:20:04;;;;;;;4.60;1.30;;;;;;;;;;4990822;28;20058;-62
2022/06/28 14:22:30;;;;;;;4.22;1.35;;;;;;;;;;4991125;28;20066;-63
2022/06/28 14:24:56;;;;;;;4.95;1.30;;;;;;;;;;4989514;28;20416;-62
2022/06/28 14:27:23;;;;;;;5.57;1.27;;;;;;;;;;4990861;28;20042;-63
2022/06/28 14:29:49;;;;;;;4.60;1.33;;;;;;;;;;4990777;28;20043;-63
2022/06/28 14:32:15;;;;;;;4.47;1.02;;;;;;;;;;4990830;28;20056;-63
2022/06/28 14:34:41;;;;;;;4.65;1.25;;;;;;;;;;4990138;28;20050;-63
2022/06/28 14:37:07;;;;;;;5.57;1.23;;;;;;;;;;4990471;28;20046;-63
2022/06/28 14:39:33;;;;;;;3.88;1.17;;;;;;;;;;4990505;28;20113;-62
2022/06/28 14:41:59;;;;;;;5.45;1.80;;;;;;;;;;4990886;28;20460;-63
2022/06/28 14:44:26;;;;;;;5.55;1.48;;;;;;;;;;4990650;28;20436;-62
2022/06/28 14:46:52;;;;;;;5.32;1.20;;;;;;;;;;4990455;28;20785;-62